Tomriz A — TCRB8 — position and weather

sailwx.info

Track history (hours):
 
Tides and Currents Weather Stations Pressure Air Temp Water Temp Dewpoint Dewpoint Depression Visibility Wind Speed Wind Dir Waves Ship Positions

Tomriz A

Last reported at 2018-Jun-19 04:01 UTC. Time now 2018-Jun-21 12:27 UTC.
Position N 36°43' E 000°20'.

Type: Ship (hazmat cat A). MMSI: 27100158.

Date/timePositionNaut miles runAvg speedWind from/ knotsBaromVisibWave heightAir tempDewpointWater temp
2018-Jun-19 04:01N 36°43' E 000°20'014.9
2018-Jun-19 03:59N 36°43' E 000°19'4414.7
2018-Jun-19 01:00N 36°37' W 000°35'714.6
2018-Jun-19 00:30N 36°36' W 000°44'2714.9
2018-Jun-18 22:41N 36°32' W 001°18'19315.3
2018-Jun-18 10:04N 35°59' W 005°13'116.1
2018-Jun-18 10:00N 35°59' W 005°14'816.0
2018-Jun-18 09:30N 35°58' W 005°24'178 5.0
2018-Jun-16 21:58N 33°37' W 007°36'3 5.4
2018-Jun-16 21:27N 33°39' W 007°34'170 4.3
2018-Jun-15 05:34N 35°57' W 005°34'0 8.8
2018-Jun-15 05:30N 35°57' W 005°33'3 0.1
2018-Jun-14 06:05N 35°54' W 005°33'0 4.6
2018-Jun-14 06:00N 35°55' W 005°33'3 6.9
2018-Jun-14 05:30N 35°58' W 005°31'3 5.8
2018-Jun-14 05:00N 35°59' W 005°28'2 4.3
2018-Jun-14 04:30N 35°60' W 005°25'5 9.5
2018-Jun-14 04:01N 36°01' W 005°20'510.0
2018-Jun-14 03:30N 36°03' W 005°14'510.3
2018-Jun-14 03:00N 36°05' W 005°08'5 9.5
2018-Jun-14 02:29N 36°07' W 005°02'5 9.5
2018-Jun-14 02:00N 36°09' W 004°57'242 8.4
2018-Jun-12 21:14N 36°41' E 000°01'314.0
2018-Jun-12 21:00N 36°41' E 000°05'713.9
2018-Jun-12 20:30N 36°43' E 000°13'1414.0
2018-Jun-12 19:29N 36°45' E 000°31'1213.9
2018-Jun-12 18:38N 36°47' E 000°45'213.6
2018-Jun-12 18:27N 36°48' E 000°48'713.7
2018-Jun-12 17:58N 36°49' E 000°57'713.6
2018-Jun-12 17:29N 36°50' E 001°05'713.7
2018-Jun-12 16:58N 36°50' E 001°14'1513.6
2018-Jun-12 15:53N 36°52' E 001°32'813.5
2018-Jun-12 15:18N 36°53' E 001°42'1313.3
2018-Jun-12 14:21N 36°55' E 001°57'  
2018-Jun-09 12:40N 36°54' E 023°21'214.2
2018-Jun-09 12:30N 36°56' E 023°21'714.6
2018-Jun-09 12:00N 37°02' E 023°26'715.1
2018-Jun-09 11:30N 37°09' E 023°31'1615.0
2018-Jun-09 10:27N 37°22' E 023°41'714.9
2018-Jun-09 10:00N 37°29' E 023°42'714.7
2018-Jun-09 09:30N 37°36' E 023°42'612.3
2018-Jun-09 09:00N 37°42' E 023°40'714.1
2018-Jun-09 08:30N 37°49' E 023°37'612.3
2018-Jun-09 08:00N 37°55' E 023°37'3 5.4
2018-Jun-09 07:30N 37°57' E 023°36'0 0.3
2018-Jun-09 07:00N 37°57' E 023°36'0 0.0
2018-Jun-09 06:30N 37°57' E 023°36'0 0.0
2018-Jun-09 06:00N 37°57' E 023°36'0 0.0
2018-Jun-09 05:30N 37°57' E 023°36'0 0.0
2018-Jun-09 05:00N 37°57' E 023°36'0 0.0
2018-Jun-09 04:30N 37°57' E 023°36'  
Track history (hours):
 
Tides and Currents Weather Stations Pressure Air Temp Water Temp Dewpoint Dewpoint Depression Visibility Wind Speed Wind Dir Waves Ship Positions

Tomriz A

Last reported at 2018-Jun-19 04:01 UTC. Time now 2018-Jun-21 12:27 UTC.
Position N 36°43' E 000°20'.

Type: Ship (hazmat cat A). MMSI: 27100158.

Date/timePositionNaut miles runAvg speedWind from/ knotsBaromVisibWave heightAir tempDewpointWater temp
2018-Jun-19 04:01N 36°43' E 000°20'014.9
2018-Jun-19 03:59N 36°43' E 000°19'4414.7
2018-Jun-19 01:00N 36°37' W 000°35'714.6
2018-Jun-19 00:30N 36°36' W 000°44'2714.9
2018-Jun-18 22:41N 36°32' W 001°18'19315.3
2018-Jun-18 10:04N 35°59' W 005°13'116.1
2018-Jun-18 10:00N 35°59' W 005°14'816.0
2018-Jun-18 09:30N 35°58' W 005°24'178 5.0
2018-Jun-16 21:58N 33°37' W 007°36'3 5.4
2018-Jun-16 21:27N 33°39' W 007°34'170 4.3
2018-Jun-15 05:34N 35°57' W 005°34'0 8.8
2018-Jun-15 05:30N 35°57' W 005°33'3 0.1
2018-Jun-14 06:05N 35°54' W 005°33'0 4.6
2018-Jun-14 06:00N 35°55' W 005°33'3 6.9
2018-Jun-14 05:30N 35°58' W 005°31'3 5.8
2018-Jun-14 05:00N 35°59' W 005°28'2 4.3
2018-Jun-14 04:30N 35°60' W 005°25'5 9.5
2018-Jun-14 04:01N 36°01' W 005°20'510.0
2018-Jun-14 03:30N 36°03' W 005°14'510.3
2018-Jun-14 03:00N 36°05' W 005°08'5 9.5
2018-Jun-14 02:29N 36°07' W 005°02'5 9.5
2018-Jun-14 02:00N 36°09' W 004°57'242 8.4
2018-Jun-12 21:14N 36°41' E 000°01'314.0
2018-Jun-12 21:00N 36°41' E 000°05'713.9
2018-Jun-12 20:30N 36°43' E 000°13'1414.0
2018-Jun-12 19:29N 36°45' E 000°31'1213.9
2018-Jun-12 18:38N 36°47' E 000°45'213.6
2018-Jun-12 18:27N 36°48' E 000°48'713.7
2018-Jun-12 17:58N 36°49' E 000°57'713.6
2018-Jun-12 17:29N 36°50' E 001°05'713.7
2018-Jun-12 16:58N 36°50' E 001°14'1513.6
2018-Jun-12 15:53N 36°52' E 001°32'813.5
2018-Jun-12 15:18N 36°53' E 001°42'1313.3
2018-Jun-12 14:21N 36°55' E 001°57'  
2018-Jun-09 12:40N 36°54' E 023°21'214.2
2018-Jun-09 12:30N 36°56' E 023°21'714.6
2018-Jun-09 12:00N 37°02' E 023°26'715.1
2018-Jun-09 11:30N 37°09' E 023°31'1615.0
2018-Jun-09 10:27N 37°22' E 023°41'714.9
2018-Jun-09 10:00N 37°29' E 023°42'714.7
2018-Jun-09 09:30N 37°36' E 023°42'612.3
2018-Jun-09 09:00N 37°42' E 023°40'714.1
2018-Jun-09 08:30N 37°49' E 023°37'612.3
2018-Jun-09 08:00N 37°55' E 023°37'3 5.4
2018-Jun-09 07:30N 37°57' E 023°36'0 0.3
2018-Jun-09 07:00N 37°57' E 023°36'0 0.0
2018-Jun-09 06:30N 37°57' E 023°36'0 0.0
2018-Jun-09 06:00N 37°57' E 023°36'0 0.0
2018-Jun-09 05:30N 37°57' E 023°36'0 0.0
2018-Jun-09 05:00N 37°57' E 023°36'0 0.0
2018-Jun-09 04:30N 37°57' E 023°36'  

Dump ship's entire track history